sensor_id;sensor_type;location;lat;lon;timestamp;pressure;altitude;pressure_sealevel;temperature;humidity
63535;BME280;55128;50.230;18.944;2023-08-21T00:02:04;98989.88;;;20.52;87.79
63535;BME280;55128;50.230;18.944;2023-08-21T00:07:05;98987.91;;;20.54;88.22
63535;BME280;55128;50.230;18.944;2023-08-21T00:12:06;98992.34;;;20.44;87.89
63535;BME280;55128;50.230;18.944;2023-08-21T00:17:07;98988.16;;;20.29;88.11
63535;BME280;55128;50.230;18.944;2023-08-21T00:22:08;98985.59;;;20.27;88.72
63535;BME280;55128;50.230;18.944;2023-08-21T00:27:08;98989.78;;;20.20;89.38
63535;BME280;55128;50.230;18.944;2023-08-21T00:32:08;98985.84;;;20.35;88.94
63535;BME280;55128;50.230;18.944;2023-08-21T00:37:09;98985.34;;;20.30;88.62
63535;BME280;55128;50.230;18.944;2023-08-21T00:42:11;98978.38;;;20.16;89.84
63535;BME280;55128;50.230;18.944;2023-08-21T00:47:11;98975.19;;;20.11;89.08
63535;BME280;55128;50.230;18.944;2023-08-21T00:52:12;98981.31;;;20.02;89.29
63535;BME280;55128;50.230;18.944;2023-08-21T00:57:14;98979.59;;;20.01;89.13
63535;BME280;55128;50.230;18.944;2023-08-21T01:02:15;98993.69;;;19.93;89.60
63535;BME280;55128;50.230;18.944;2023-08-21T01:07:15;98987.19;;;19.85;90.06
63535;BME280;55128;50.230;18.944;2023-08-21T01:12:24;98989.50;;;19.89;90.08
63535;BME280;55128;50.230;18.944;2023-08-21T01:17:26;98986.56;;;19.81;89.76
63535;BME280;55128;50.230;18.944;2023-08-21T01:22:36;98982.50;;;19.75;89.89
63535;BME280;55128;50.230;18.944;2023-08-21T01:27:41;98995.97;;;19.75;89.74
63535;BME280;55128;50.230;18.944;2023-08-21T01:32:53;98989.84;;;19.73;90.07
63535;BME280;55128;50.230;18.944;2023-08-21T01:37:56;98981.53;;;19.76;89.82
63535;BME280;55128;50.230;18.944;2023-08-21T01:42:56;98982.97;;;19.69;89.81
63535;BME280;55128;50.230;18.944;2023-08-21T01:47:57;98979.81;;;19.75;89.91
63535;BME280;55128;50.230;18.944;2023-08-21T01:52:57;98980.50;;;19.66;90.39
63535;BME280;55128;50.230;18.944;2023-08-21T01:57:57;98980.97;;;19.60;89.87
63535;BME280;55128;50.230;18.944;2023-08-21T02:02:58;98979.72;;;19.53;89.93
63535;BME280;55128;50.230;18.944;2023-08-21T02:07:58;98981.91;;;19.48;90.00
63535;BME280;55128;50.230;18.944;2023-08-21T02:12:58;98975.44;;;19.50;90.67
63535;BME280;55128;50.230;18.944;2023-08-21T02:17:59;98975.44;;;19.50;90.00
63535;BME280;55128;50.230;18.944;2023-08-21T02:22:59;98968.72;;;19.56;89.63
63535;BME280;55128;50.230;18.944;2023-08-21T02:28:00;98958.41;;;19.50;90.06
63535;BME280;55128;50.230;18.944;2023-08-21T02:33:00;98962.22;;;19.47;89.50
63535;BME280;55128;50.230;18.944;2023-08-21T02:38:00;98950.34;;;19.50;90.56
63535;BME280;55128;50.230;18.944;2023-08-21T02:43:01;98948.88;;;19.57;90.54
63535;BME280;55128;50.230;18.944;2023-08-21T02:48:01;98945.44;;;19.43;90.89
63535;BME280;55128;50.230;18.944;2023-08-21T02:53:02;98946.28;;;19.44;90.99
63535;BME280;55128;50.230;18.944;2023-08-21T02:58:02;98954.63;;;19.41;90.38
63535;BME280;55128;50.230;18.944;2023-08-21T03:03:03;98960.84;;;19.41;89.96
63535;BME280;55128;50.230;18.944;2023-08-21T03:08:04;98956.97;;;19.21;91.08
63535;BME280;55128;50.230;18.944;2023-08-21T03:13:04;98951.59;;;19.21;90.84
63535;BME280;55128;50.230;18.944;2023-08-21T03:18:05;98952.19;;;19.14;90.41
63535;BME280;55128;50.230;18.944;2023-08-21T03:23:05;98966.00;;;19.09;90.56
63535;BME280;55128;50.230;18.944;2023-08-21T03:28:05;98960.63;;;19.09;90.24
63535;BME280;55128;50.230;18.944;2023-08-21T03:33:06;98973.88;;;18.99;90.73
63535;BME280;55128;50.230;18.944;2023-08-21T03:38:07;98968.88;;;18.95;91.79
63535;BME280;55128;50.230;18.944;2023-08-21T03:43:07;98960.56;;;18.98;91.64
63535;BME280;55128;50.230;18.944;2023-08-21T03:48:08;98961.69;;;19.07;91.22
63535;BME280;55128;50.230;18.944;2023-08-21T03:53:08;98961.53;;;18.97;92.43
63535;BME280;55128;50.230;18.944;2023-08-21T03:58:08;98963.06;;;19.12;92.21
63535;BME280;55128;50.230;18.944;2023-08-21T04:03:09;98964.91;;;19.12;91.25
63535;BME280;55128;50.230;18.944;2023-08-21T04:08:09;98958.66;;;19.11;91.21
63535;BME280;55128;50.230;18.944;2023-08-21T04:13:09;98963.84;;;19.26;90.79
63535;BME280;55128;50.230;18.944;2023-08-21T04:18:10;98961.31;;;19.35;90.51
63535;BME280;55128;50.230;18.944;2023-08-21T04:23:10;98965.03;;;19.57;90.34
63535;BME280;55128;50.230;18.944;2023-08-21T04:28:10;98956.28;;;19.77;89.61
63535;BME280;55128;50.230;18.944;2023-08-21T04:33:11;98958.78;;;20.03;89.53
63535;BME280;55128;50.230;18.944;2023-08-21T04:38:11;98951.53;;;20.26;88.13
63535;BME280;55128;50.230;18.944;2023-08-21T04:43:11;98940.59;;;20.39;87.50
63535;BME280;55128;50.230;18.944;2023-08-21T04:48:12;98951.03;;;20.99;85.28
63535;BME280;55128;50.230;18.944;2023-08-21T04:53:12;98962.50;;;21.12;86.42
63535;BME280;55128;50.230;18.944;2023-08-21T04:58:13;98969.94;;;21.52;84.67
63535;BME280;55128;50.230;18.944;2023-08-21T05:03:14;98965.13;;;21.77;83.00
63535;BME280;55128;50.230;18.944;2023-08-21T05:08:14;98969.97;;;22.35;84.30
63535;BME280;55128;50.230;18.944;2023-08-21T05:13:14;98970.66;;;22.27;80.61
63535;BME280;55128;50.230;18.944;2023-08-21T05:18:17;98977.91;;;22.77;81.54
63535;BME280;55128;50.230;18.944;2023-08-21T05:23:18;98972.59;;;24.12;75.69
63535;BME280;55128;50.230;18.944;2023-08-21T05:28:18;98974.25;;;25.59;71.16
63535;BME280;55128;50.230;18.944;2023-08-21T05:33:18;98991.47;;;26.73;66.41
63535;BME280;55128;50.230;18.944;2023-08-21T05:38:19;98991.03;;;27.19;62.70
63535;BME280;55128;50.230;18.944;2023-08-21T05:43:19;99000.06;;;27.11;62.22
63535;BME280;55128;50.230;18.944;2023-08-21T05:48:19;99007.44;;;26.68;64.13
63535;BME280;55128;50.230;18.944;2023-08-21T05:53:20;98993.72;;;26.94;63.51
63535;BME280;55128;50.230;18.944;2023-08-21T05:58:20;99013.09;;;27.33;62.78
63535;BME280;55128;50.230;18.944;2023-08-21T06:03:20;99010.59;;;28.54;60.27
63535;BME280;55128;50.230;18.944;2023-08-21T06:08:28;99024.81;;;28.33;57.75
63535;BME280;55128;50.230;18.944;2023-08-21T06:23:49;99038.47;;;26.83;62.79
63535;BME280;55128;50.230;18.944;2023-08-21T06:28:49;99047.34;;;26.25;64.81
63535;BME280;55128;50.230;18.944;2023-08-21T06:33:51;99049.59;;;25.85;66.00
63535;BME280;55128;50.230;18.944;2023-08-21T06:38:51;99054.59;;;25.36;68.28
63535;BME280;55128;50.230;18.944;2023-08-21T06:43:52;99062.22;;;25.22;69.02
63535;BME280;55128;50.230;18.944;2023-08-21T06:48:52;99062.22;;;25.22;68.90
63535;BME280;55128;50.230;18.944;2023-08-21T06:53:52;99066.00;;;25.39;68.04
63535;BME280;55128;50.230;18.944;2023-08-21T06:58:53;99073.44;;;25.37;67.38
63535;BME280;55128;50.230;18.944;2023-08-21T07:03:55;99073.78;;;25.34;68.24
63535;BME280;55128;50.230;18.944;2023-08-21T07:08:55;99073.63;;;25.36;68.75
63535;BME280;55128;50.230;18.944;2023-08-21T07:13:55;99079.38;;;25.33;68.62
63535;BME280;55128;50.230;18.944;2023-08-21T07:18:56;99079.59;;;25.39;69.14
63535;BME280;55128;50.230;18.944;2023-08-21T07:23:56;99085.03;;;25.57;68.07
63535;BME280;55128;50.230;18.944;2023-08-21T07:28:56;99085.66;;;25.87;66.56
63535;BME280;55128;50.230;18.944;2023-08-21T07:33:57;99090.72;;;26.00;66.24
63535;BME280;55128;50.230;18.944;2023-08-21T07:38:57;99086.66;;;25.86;66.50
63535;BME280;55128;50.230;18.944;2023-08-21T07:43:58;99093.13;;;26.03;64.83
63535;BME280;55128;50.230;18.944;2023-08-21T07:48:58;99099.59;;;26.02;65.53
63535;BME280;55128;50.230;18.944;2023-08-21T07:53:58;99095.00;;;26.29;64.42
63535;BME280;55128;50.230;18.944;2023-08-21T07:58:59;99091.19;;;26.66;63.85
63535;BME280;55128;50.230;18.944;2023-08-21T08:03:59;99090.66;;;26.96;62.37
63535;BME280;55128;50.230;18.944;2023-08-21T08:09:00;99085.53;;;26.93;61.30
63535;BME280;55128;50.230;18.944;2023-08-21T08:14:00;99074.28;;;26.96;60.90
63535;BME280;55128;50.230;18.944;2023-08-21T08:19:01;99083.78;;;26.84;61.96
63535;BME280;55128;50.230;18.944;2023-08-21T08:24:02;99082.47;;;26.96;61.52
63535;BME280;55128;50.230;18.944;2023-08-21T08:29:02;99080.72;;;26.87;61.94
63535;BME280;55128;50.230;18.944;2023-08-21T08:34:02;99084.50;;;27.37;60.79
63535;BME280;55128;50.230;18.944;2023-08-21T08:39:03;99083.66;;;27.45;59.96
63535;BME280;55128;50.230;18.944;2023-08-21T08:44:03;99083.19;;;27.74;59.35
63535;BME280;55128;50.230;18.944;2023-08-21T08:49:04;99082.59;;;29.17;56.51
63535;BME280;55128;50.230;18.944;2023-08-21T08:54:06;99087.06;;;29.10;54.92
63535;BME280;55128;50.230;18.944;2023-08-21T08:59:08;99087.41;;;29.15;54.76
63535;BME280;55128;50.230;18.944;2023-08-21T09:04:10;99089.81;;;28.62;55.86
63535;BME280;55128;50.230;18.944;2023-08-21T09:09:11;99076.88;;;28.95;55.66
63535;BME280;55128;50.230;18.944;2023-08-21T09:14:26;99081.09;;;30.97;49.74
63535;BME280;55128;50.230;18.944;2023-08-21T09:19:27;99074.16;;;32.46;47.02
63535;BME280;55128;50.230;18.944;2023-08-21T09:24:28;99070.53;;;32.73;45.15
63535;BME280;55128;50.230;18.944;2023-08-21T09:29:38;99074.91;;;33.58;43.17
63535;BME280;55128;50.230;18.944;2023-08-21T09:34:39;99072.16;;;32.96;45.29
63535;BME280;55128;50.230;18.944;2023-08-21T09:39:40;99073.00;;;36.39;36.98
63535;BME280;55128;50.230;18.944;2023-08-21T09:44:44;99070.41;;;36.63;37.36
63535;BME280;55128;50.230;18.944;2023-08-21T09:49:48;99063.91;;;35.36;37.55
63535;BME280;55128;50.230;18.944;2023-08-21T09:54:56;99063.25;;;34.89;39.42
63535;BME280;55128;50.230;18.944;2023-08-21T09:59:57;99072.88;;;34.60;39.48
63535;BME280;55128;50.230;18.944;2023-08-21T10:04:59;99072.00;;;34.79;39.02
63535;BME280;55128;50.230;18.944;2023-08-21T10:10:00;99061.63;;;33.88;40.24
63535;BME280;55128;50.230;18.944;2023-08-21T10:15:01;99053.06;;;33.43;41.87
63535;BME280;55128;50.230;18.944;2023-08-21T10:20:03;99054.31;;;33.27;41.71
63535;BME280;55128;50.230;18.944;2023-08-21T10:25:04;99061.44;;;34.03;40.14
63535;BME280;55128;50.230;18.944;2023-08-21T10:30:21;99050.81;;;33.66;41.35
63535;BME280;55128;50.230;18.944;2023-08-21T10:35:29;99051.03;;;33.65;40.55
63535;BME280;55128;50.230;18.944;2023-08-21T10:40:31;99049.56;;;32.09;45.66
63535;BME280;55128;50.230;18.944;2023-08-21T10:50:51;99036.88;;;31.44;53.30
63535;BME280;55128;50.230;18.944;2023-08-21T10:55:53;99030.69;;;30.69;55.63
63535;BME280;55128;50.230;18.944;2023-08-21T11:01:00;99026.31;;;30.30;57.49
63535;BME280;55128;50.230;18.944;2023-08-21T11:06:08;99018.31;;;29.67;60.30
63535;BME280;55128;50.230;18.944;2023-08-21T11:11:10;99003.72;;;29.75;59.35
63535;BME280;55128;50.230;18.944;2023-08-21T11:16:10;99017.31;;;30.06;56.50
63535;BME280;55128;50.230;18.944;2023-08-21T11:21:12;99025.78;;;30.34;58.57
63535;BME280;55128;50.230;18.944;2023-08-21T11:26:12;99025.75;;;29.81;57.30
63535;BME280;55128;50.230;18.944;2023-08-21T11:31:12;99033.66;;;30.14;55.74
63535;BME280;55128;50.230;18.944;2023-08-21T11:36:13;99031.97;;;30.28;57.52
63535;BME280;55128;50.230;18.944;2023-08-21T11:41:13;99032.69;;;30.75;56.35
63535;BME280;55128;50.230;18.944;2023-08-21T11:46:13;99035.81;;;31.23;53.70
63535;BME280;55128;50.230;18.944;2023-08-21T11:51:14;99029.16;;;31.32;51.93
63535;BME280;55128;50.230;18.944;2023-08-21T11:56:15;99021.88;;;31.03;52.67
63535;BME280;55128;50.230;18.944;2023-08-21T12:01:17;99024.31;;;31.13;51.30
63535;BME280;55128;50.230;18.944;2023-08-21T12:06:21;99023.75;;;31.03;52.45
63535;BME280;55128;50.230;18.944;2023-08-21T12:11:22;99026.88;;;31.14;52.03
63535;BME280;55128;50.230;18.944;2023-08-21T12:16:23;99024.88;;;31.45;50.92
63535;BME280;55128;50.230;18.944;2023-08-21T12:21:24;99023.13;;;31.58;50.69
63535;BME280;55128;50.230;18.944;2023-08-21T12:26:25;99015.00;;;31.72;46.85
63535;BME280;55128;50.230;18.944;2023-08-21T12:31:25;99013.78;;;31.74;46.32
63535;BME280;55128;50.230;18.944;2023-08-21T12:36:35;99021.31;;;31.94;46.33
63535;BME280;55128;50.230;18.944;2023-08-21T12:41:39;99015.88;;;32.01;46.41
63535;BME280;55128;50.230;18.944;2023-08-21T12:46:39;99010.06;;;32.10;46.81
63535;BME280;55128;50.230;18.944;2023-08-21T12:51:40;99004.09;;;31.78;45.21
63535;BME280;55128;50.230;18.944;2023-08-21T12:56:40;98995.34;;;31.96;45.60
63535;BME280;55128;50.230;18.944;2023-08-21T13:01:40;98987.06;;;31.25;46.44
63535;BME280;55128;50.230;18.944;2023-08-21T13:06:41;98982.16;;;31.42;46.77
63535;BME280;55128;50.230;18.944;2023-08-21T13:11:41;98981.19;;;31.07;46.10
63535;BME280;55128;50.230;18.944;2023-08-21T13:16:41;98974.16;;;31.41;47.11
63535;BME280;55128;50.230;18.944;2023-08-21T13:21:42;98968.94;;;31.67;44.58
63535;BME280;55128;50.230;18.944;2023-08-21T13:26:43;98958.97;;;31.66;45.86
63535;BME280;55128;50.230;18.944;2023-08-21T13:31:43;98951.47;;;31.75;45.59
63535;BME280;55128;50.230;18.944;2023-08-21T13:36:44;98946.81;;;31.75;45.95
63535;BME280;55128;50.230;18.944;2023-08-21T13:41:44;98946.69;;;31.62;46.80
63535;BME280;55128;50.230;18.944;2023-08-21T13:46:44;98943.16;;;31.25;47.59
63535;BME280;55128;50.230;18.944;2023-08-21T13:51:45;98934.69;;;31.20;47.96
63535;BME280;55128;50.230;18.944;2023-08-21T13:56:45;98927.88;;;31.37;48.59
63535;BME280;55128;50.230;18.944;2023-08-21T14:01:50;98923.88;;;31.40;46.89
63535;BME280;55128;50.230;18.944;2023-08-21T14:06:50;98917.94;;;31.58;46.84
63535;BME280;55128;50.230;18.944;2023-08-21T14:11:51;98915.44;;;31.42;49.43
63535;BME280;55128;50.230;18.944;2023-08-21T14:16:51;98913.31;;;31.58;48.63
63535;BME280;55128;50.230;18.944;2023-08-21T14:21:51;98913.53;;;31.92;47.30
63535;BME280;55128;50.230;18.944;2023-08-21T14:26:55;98907.13;;;32.06;47.46
63535;BME280;55128;50.230;18.944;2023-08-21T14:32:10;98910.09;;;32.11;46.11
63535;BME280;55128;50.230;18.944;2023-08-21T14:37:11;98910.34;;;31.88;46.29
63535;BME280;55128;50.230;18.944;2023-08-21T14:42:15;98912.81;;;32.05;45.35
63535;BME280;55128;50.230;18.944;2023-08-21T14:47:15;98897.31;;;31.41;46.61
63535;BME280;55128;50.230;18.944;2023-08-21T14:52:16;98897.16;;;31.70;46.55
63535;BME280;55128;50.230;18.944;2023-08-21T14:57:16;98895.47;;;31.48;46.74
63535;BME280;55128;50.230;18.944;2023-08-21T15:02:17;98895.75;;;31.31;47.44
63535;BME280;55128;50.230;18.944;2023-08-21T15:07:17;98897.56;;;31.24;47.87
63535;BME280;55128;50.230;18.944;2023-08-21T15:12:17;98896.63;;;31.10;49.11
63535;BME280;55128;50.230;18.944;2023-08-21T15:17:18;98899.41;;;31.17;49.04
63535;BME280;55128;50.230;18.944;2023-08-21T15:22:18;98887.06;;;31.28;49.43
63535;BME280;55128;50.230;18.944;2023-08-21T15:27:19;98887.19;;;31.19;49.33
63535;BME280;55128;50.230;18.944;2023-08-21T15:32:20;98898.44;;;31.03;50.77
63535;BME280;55128;50.230;18.944;2023-08-21T15:37:20;98900.06;;;30.97;51.13
63535;BME280;55128;50.230;18.944;2023-08-21T15:42:20;98892.19;;;30.73;51.37
63535;BME280;55128;50.230;18.944;2023-08-21T15:47:21;98888.75;;;30.49;52.16
63535;BME280;55128;50.230;18.944;2023-08-21T15:52:21;98887.34;;;30.23;52.83
63535;BME280;55128;50.230;18.944;2023-08-21T15:57:22;98888.47;;;30.14;53.24
63535;BME280;55128;50.230;18.944;2023-08-21T16:02:24;98890.09;;;30.09;53.14
63535;BME280;55128;50.230;18.944;2023-08-21T16:07:24;98883.47;;;30.03;52.88
63535;BME280;55128;50.230;18.944;2023-08-21T16:12:24;98882.28;;;29.91;53.34
63535;BME280;55128;50.230;18.944;2023-08-21T16:17:25;98884.81;;;29.92;54.40
63535;BME280;55128;50.230;18.944;2023-08-21T16:22:25;98886.56;;;29.70;56.03
63535;BME280;55128;50.230;18.944;2023-08-21T16:27:26;98890.34;;;29.69;55.54
63535;BME280;55128;50.230;18.944;2023-08-21T16:32:27;98886.25;;;29.50;56.52
63535;BME280;55128;50.230;18.944;2023-08-21T16:37:27;98890.78;;;29.58;56.21
63535;BME280;55128;50.230;18.944;2023-08-21T16:42:27;98886.97;;;29.29;57.61
63535;BME280;55128;50.230;18.944;2023-08-21T16:47:28;98891.94;;;29.25;58.79
63535;BME280;55128;50.230;18.944;2023-08-21T16:52:28;98906.09;;;29.06;59.09
63535;BME280;55128;50.230;18.944;2023-08-21T16:57:28;98903.72;;;28.80;59.92
63535;BME280;55128;50.230;18.944;2023-08-21T17:02:29;98913.59;;;28.81;59.84
63535;BME280;55128;50.230;18.944;2023-08-21T17:07:29;98908.78;;;28.60;61.29
63535;BME280;55128;50.230;18.944;2023-08-21T17:12:33;98907.88;;;28.28;62.87
63535;BME280;55128;50.230;18.944;2023-08-21T17:17:34;98911.25;;;27.90;64.06
63535;BME280;55128;50.230;18.944;2023-08-21T17:22:34;98916.41;;;27.69;65.37
63535;BME280;55128;50.230;18.944;2023-08-21T17:27:34;98916.09;;;27.31;66.39
63535;BME280;55128;50.230;18.944;2023-08-21T17:32:35;98919.47;;;27.25;67.05
63535;BME280;55128;50.230;18.944;2023-08-21T17:37:35;98919.47;;;27.25;67.23
63535;BME280;55128;50.230;18.944;2023-08-21T17:42:35;98923.22;;;27.07;67.85
63535;BME280;55128;50.230;18.944;2023-08-21T17:47:36;98917.06;;;26.89;68.71
63535;BME280;55128;50.230;18.944;2023-08-21T17:52:36;98921.63;;;26.72;69.10
63535;BME280;55128;50.230;18.944;2023-08-21T17:57:37;98923.66;;;26.62;69.40
63535;BME280;55128;50.230;18.944;2023-08-21T18:02:38;98916.56;;;26.43;70.21
63535;BME280;55128;50.230;18.944;2023-08-21T18:07:38;98924.94;;;26.41;70.46
63535;BME280;55128;50.230;18.944;2023-08-21T18:12:39;98923.28;;;26.22;71.41
63535;BME280;55128;50.230;18.944;2023-08-21T18:17:39;98924.59;;;26.02;72.63
63535;BME280;55128;50.230;18.944;2023-08-21T18:22:40;98919.00;;;25.85;73.25
63535;BME280;55128;50.230;18.944;2023-08-21T18:27:41;98912.81;;;25.75;73.96
63535;BME280;55128;50.230;18.944;2023-08-21T18:32:41;98912.91;;;25.65;74.38
63535;BME280;55128;50.230;18.944;2023-08-21T18:37:41;98917.56;;;25.47;75.17
63535;BME280;55128;50.230;18.944;2023-08-21T18:42:41;98928.75;;;25.44;75.21
63535;BME280;55128;50.230;18.944;2023-08-21T18:47:42;98938.81;;;25.25;76.06
63535;BME280;55128;50.230;18.944;2023-08-21T18:52:42;98950.97;;;25.21;76.16
63535;BME280;55128;50.230;18.944;2023-08-21T18:57:43;98969.75;;;25.14;76.52
63535;BME280;55128;50.230;18.944;2023-08-21T19:02:44;98978.44;;;25.18;75.95
63535;BME280;55128;50.230;18.944;2023-08-21T19:07:44;98981.47;;;24.97;77.02
63535;BME280;55128;50.230;18.944;2023-08-21T19:12:45;98976.41;;;24.84;77.57
63535;BME280;55128;50.230;18.944;2023-08-21T19:17:46;98990.19;;;24.73;77.76
63535;BME280;55128;50.230;18.944;2023-08-21T19:22:47;98981.91;;;24.74;77.94
63535;BME280;55128;50.230;18.944;2023-08-21T19:27:48;98996.06;;;24.68;78.53
63535;BME280;55128;50.230;18.944;2023-08-21T19:32:48;98990.72;;;24.49;79.37
63535;BME280;55128;50.230;18.944;2023-08-21T19:37:48;98985.06;;;24.42;79.46
63535;BME280;55128;50.230;18.944;2023-08-21T19:42:49;98987.78;;;24.32;80.00
63535;BME280;55128;50.230;18.944;2023-08-21T19:47:49;98997.41;;;24.17;80.16
63535;BME280;55128;50.230;18.944;2023-08-21T19:52:49;98996.47;;;23.98;80.90
63535;BME280;55128;50.230;18.944;2023-08-21T19:57:50;99003.50;;;23.81;81.42
63535;BME280;55128;50.230;18.944;2023-08-21T20:02:50;99002.38;;;23.64;82.31
63535;BME280;55128;50.230;18.944;2023-08-21T20:07:51;98996.13;;;23.54;82.94
63535;BME280;55128;50.230;18.944;2023-08-21T20:12:51;98993.41;;;23.54;82.28
63535;BME280;55128;50.230;18.944;2023-08-21T20:17:56;98992.69;;;23.52;82.32
63535;BME280;55128;50.230;18.944;2023-08-21T20:22:56;98998.69;;;23.36;83.17
63535;BME280;55128;50.230;18.944;2023-08-21T20:27:59;99003.97;;;23.18;83.77
63535;BME280;55128;50.230;18.944;2023-08-21T20:43:56;98999.19;;;22.91;84.27
63535;BME280;55128;50.230;18.944;2023-08-21T20:48:56;98999.44;;;22.88;84.67
63535;BME280;55128;50.230;18.944;2023-08-21T20:53:57;99000.03;;;22.82;84.28
63535;BME280;55128;50.230;18.944;2023-08-21T20:59:00;98998.72;;;22.76;85.29
63535;BME280;55128;50.230;18.944;2023-08-21T21:04:00;99005.38;;;22.52;86.05
63535;BME280;55128;50.230;18.944;2023-08-21T21:09:01;99004.34;;;22.44;86.58
63535;BME280;55128;50.230;18.944;2023-08-21T21:14:04;99004.59;;;22.41;86.31
63535;BME280;55128;50.230;18.944;2023-08-21T21:19:04;99008.41;;;22.28;87.02
63535;BME280;55128;50.230;18.944;2023-08-21T21:24:05;99005.22;;;22.23;87.58
63535;BME280;55128;50.230;18.944;2023-08-21T21:29:06;99007.59;;;22.17;87.50
63535;BME280;55128;50.230;18.944;2023-08-21T21:34:07;99011.97;;;22.08;88.18
63535;BME280;55128;50.230;18.944;2023-08-21T21:39:10;99009.47;;;21.95;88.95
63535;BME280;55128;50.230;18.944;2023-08-21T21:44:10;99023.13;;;21.93;88.28
63535;BME280;55128;50.230;18.944;2023-08-21T21:49:11;99021.56;;;21.91;88.34
63535;BME280;55128;50.230;18.944;2023-08-21T21:54:11;99022.34;;;21.82;89.31
63535;BME280;55128;50.230;18.944;2023-08-21T21:59:12;99017.53;;;21.85;89.17
63535;BME280;55128;50.230;18.944;2023-08-21T22:04:12;99025.38;;;21.88;89.03
63535;BME280;55128;50.230;18.944;2023-08-21T22:09:13;99028.75;;;22.02;87.68
63535;BME280;55128;50.230;18.944;2023-08-21T22:14:14;99030.84;;;21.98;87.74
63535;BME280;55128;50.230;18.944;2023-08-21T22:19:15;99028.47;;;21.84;88.47
63535;BME280;55128;50.230;18.944;2023-08-21T22:24:16;99028.81;;;21.90;87.74
63535;BME280;55128;50.230;18.944;2023-08-21T22:29:16;99029.19;;;21.65;89.07
63535;BME280;55128;50.230;18.944;2023-08-21T22:34:17;99026.75;;;21.62;89.11
63535;BME280;55128;50.230;18.944;2023-08-21T22:39:18;99022.84;;;21.54;89.74
63535;BME280;55128;50.230;18.944;2023-08-21T22:44:18;99034.97;;;21.60;89.27
63535;BME280;55128;50.230;18.944;2023-08-21T22:49:19;99042.03;;;21.51;90.23
63535;BME280;55128;50.230;18.944;2023-08-21T22:54:19;99029.56;;;21.60;89.67
63535;BME280;55128;50.230;18.944;2023-08-21T22:59:20;99011.78;;;21.58;90.47
63535;BME280;55128;50.230;18.944;2023-08-21T23:04:20;99001.41;;;21.53;90.87
63535;BME280;55128;50.230;18.944;2023-08-21T23:09:20;98995.78;;;21.66;90.03
63535;BME280;55128;50.230;18.944;2023-08-21T23:14:21;99002.56;;;21.60;88.95
63535;BME280;55128;50.230;18.944;2023-08-21T23:19:21;99003.97;;;21.43;89.74
63535;BME280;55128;50.230;18.944;2023-08-21T23:24:21;98997.44;;;21.25;90.28
63535;BME280;55128;50.230;18.944;2023-08-21T23:29:22;98986.34;;;21.28;90.03
63535;BME280;55128;50.230;18.944;2023-08-21T23:34:22;98988.94;;;21.29;90.15
63535;BME280;55128;50.230;18.944;2023-08-21T23:39:23;98989.72;;;21.20;89.76
63535;BME280;55128;50.230;18.944;2023-08-21T23:44:23;98988.94;;;20.97;90.48
63535;BME280;55128;50.230;18.944;2023-08-21T23:49:24;98988.19;;;21.06;90.43
63535;BME280;55128;50.230;18.944;2023-08-21T23:54:24;98980.44;;;21.02;90.34
63535;BME280;55128;50.230;18.944;2023-08-21T23:59:24;98965.91;;;20.93;90.57
